[ ตารางข้อมูล ] [ Min-Max ] [ วันนี้4 ] [ วันนี้2 ] [ เทียบ3วัน A ] [ เทียบ4วัน B ]   

วันนี้2   [ ◀ ช่วงเก่ากว่า ] [ ช่วงที่ 176 ] [ ช่วงใหม่กว่า ▶ ] [ ล่าสุด ]    [ 3 ชั่วโมง ] [ 6 ชั่วโมง ] [ 12 ชั่วโมง ] [ 24 ชั่วโมง ]   วันนี้2

อุณภูมิตู้ Knockdown4529  ราย 6 ชั่วโมง  ที่วัดได้ ในช่วงวันเวลา 20/03/2026 (04:10) ถึง 20/03/2026 (10:10) 
ความชื้นในตู้ Knockdown4529  ราย 6 ชั่วโมง  ที่วัดได้ ในช่วงวันเวลา 20/03/2026 (04:10) ถึง 20/03/2026 (10:10) 

 
DS18B20SHTC3 
IDDate d/m/Y & Timedata1
สูง
data2
ต่ำ
data3
นอก
temp
pcb
hum
pcb
Time
 4197  20/03/2026 10:08:05  29.8  29.1  29.9  29.5  73.2  10:08 
 4196  20/03/2026 10:03:22  29.8  29.1  29.9  29.5  73.4  10:03 
 4195  20/03/2026 09:58:40  29.8  29.1  30.0  29.4  74.2  09:58 
 4194  20/03/2026 09:53:59  29.6  28.9  29.7  29.2  73.2  09:53 
 4193  20/03/2026 09:49:17  29.6  28.9  30.0  29.4  73.5  09:49 
 4192  20/03/2026 09:44:35  29.6  28.9  29.6  29.4  74.2  09:44 
 4191  20/03/2026 09:39:53  29.5  28.9  29.7  29.2  74.0  09:39 
 4190  20/03/2026 09:35:12  29.5  28.9  29.8  29.3  73.9  09:35 
 4189  20/03/2026 09:30:30  29.4  28.8  29.4  29.1  73.7  09:30 
 4188  20/03/2026 09:25:48  29.4  28.7  29.6  29.1  73.1  09:25 
 4187  20/03/2026 09:21:06  29.3  28.6  29.5  29.1  75.1  09:21 
 4186  20/03/2026 09:16:24  29.2  28.6  29.6  28.9  75.1  09:16 
 4185  20/03/2026 09:11:42  29.1  28.4  29.5  28.7  75.1  09:11 
 4184  20/03/2026 09:07:00  28.9  28.2  29.5  28.6  74.0  09:07 
 4183  20/03/2026 09:02:19  28.9  28.2  29.2  28.7  74.1  09:02 
 4182  20/03/2026 08:57:36  28.8  28.2  29.5  28.4  74.3  08:57 
 4181  20/03/2026 08:52:53  28.6  28.1  29.5  28.2  73.7  08:52 
 4180  20/03/2026 08:48:12  28.4  27.9  29.5  28.1  73.8  08:48 
 4179  20/03/2026 08:43:30  28.2  27.8  29.2  28.1  74.2  08:43 
 4178  20/03/2026 08:38:49  27.9  27.5  28.9  27.6  74.5  08:38 
 4177  20/03/2026 08:34:07  27.7  27.4  28.5  27.4  74.2  08:34 
 4176  20/03/2026 08:29:26  27.6  27.4  28.5  27.4  74.5  08:29 
 4175  20/03/2026 08:24:44  27.5  27.3  28.0  27.3  74.8  08:24 
 4174  20/03/2026 08:20:03  27.4  27.2  27.9  27.4  74.9  08:20 

Data every 5 minute.


ใช้เวลาประมวลผล 0.00340 วินาที